Time;durP1;ratioP1;P1;durP2;ratioP2;P2;SDS_P1;SDS_P2;PMS_P1;PMS_P2;Temp;Humidity;BMP_temperature;BMP_pressure;BME280_temperature;BME280_humidity;BME280_pressure;Samples;Min_cycle;Max_cycle;Signal;HPM_P1;HPM_P2
2023/10/21 00:01:27;;;;;;;70.60;43.80;;;;;;;11.57;100.00;97828.42;131196;1301;23412;-84
2023/10/21 00:04:28;;;;;;;76.50;41.90;;;;;;;11.55;100.00;97819.69;130985;1294;23320;-83
2023/10/21 00:07:29;;;;;;;65.90;41.40;;;;;;;11.52;100.00;97823.95;131121;1292;22570;-82
2023/10/21 00:10:30;;;;;;;70.40;40.80;;;;;;;11.51;100.00;97828.63;131098;1301;22634;-82
2023/10/21 00:13:30;;;;;;;66.60;41.50;;;;;;;11.49;100.00;97830.45;131079;1297;24240;-83
2023/10/21 00:16:31;;;;;;;;;;;;;;;11.48;100.00;97838.95;131066;1298;22534;-83
2023/10/21 00:19:31;;;;;;;68.50;39.80;;;;;;;11.46;100.00;97848.85;131011;1301;23518;-82
2023/10/21 00:22:36;;;;;;;68.30;41.50;;;;;;;11.42;100.00;97849.17;131069;1301;25443;-82
2023/10/21 00:25:36;;;;;;;63.70;39.60;;;;;;;11.40;100.00;97851.14;130986;1301;25427;-82
2023/10/21 00:28:37;;;;;;;72.20;41.50;;;;;;;11.37;100.00;97841.66;130927;1295;22636;-82
2023/10/21 00:31:38;;;;;;;62.90;37.50;;;;;;;11.34;100.00;97828.22;130985;1294;22574;-80
2023/10/21 00:34:38;;;;;;;65.30;40.30;;;;;;;11.32;100.00;97821.10;131005;1301;22616;-82
2023/10/21 00:37:39;;;;;;;70.30;40.20;;;;;;;11.30;100.00;97823.92;130977;1293;24095;-84
2023/10/21 00:40:50;;;;;;;64.20;39.70;;;;;;;11.27;100.00;97822.41;130998;1297;22708;-83
2023/10/21 00:43:51;;;;;;;70.60;39.20;;;;;;;11.25;100.00;97827.71;131943;1301;23265;-80
2023/10/21 00:46:52;;;;;;;69.20;39.60;;;;;;;11.22;100.00;97821.38;130877;1294;22584;-81
2023/10/21 00:49:53;;;;;;;65.80;38.50;;;;;;;11.19;100.00;97822.48;130936;1293;22674;-83
2023/10/21 00:52:54;;;;;;;69.80;40.10;;;;;;;11.17;100.00;97827.90;130812;1293;23032;-81
2023/10/21 00:55:54;;;;;;;73.10;41.00;;;;;;;11.16;100.00;97839.06;131010;1298;22637;-80
2023/10/21 00:58:56;;;;;;;74.50;39.50;;;;;;;11.16;100.00;97842.66;130943;1301;25302;-81
2023/10/21 01:01:56;;;;;;;70.40;39.40;;;;;;;11.16;100.00;97837.89;130945;1285;22555;-82
2023/10/21 01:04:58;;;;;;;66.10;38.00;;;;;;;11.16;100.00;97848.14;130935;1301;22587;-81
2023/10/21 01:07:59;;;;;;;63.80;37.30;;;;;;;11.14;100.00;97871.60;130809;1301;22592;-80
2023/10/21 01:11:00;;;;;;;68.60;38.50;;;;;;;11.15;100.00;97873.58;130931;1294;23322;-80
2023/10/21 01:14:02;;;;;;;68.60;37.40;;;;;;;11.14;100.00;97872.86;130809;1304;22796;-81
2023/10/21 01:17:03;;;;;;;64.20;39.20;;;;;;;11.09;100.00;97877.90;130767;1301;22562;-85
2023/10/21 01:20:06;;;;;;;59.50;37.60;;;;;;;11.06;100.00;97885.77;131215;1295;25611;-83
2023/10/21 01:23:07;;;;;;;66.90;37.40;;;;;;;11.01;100.00;97889.23;131017;1301;22591;-79
2023/10/21 01:26:08;;;;;;;66.50;37.00;;;;;;;10.96;100.00;97897.19;130936;1298;22588;-81
2023/10/21 01:29:09;;;;;;;68.50;37.40;;;;;;;10.93;100.00;97906.61;131020;1301;22560;-80
2023/10/21 01:32:09;;;;;;;61.30;36.00;;;;;;;10.91;100.00;97912.67;131074;1301;24240;-82
2023/10/21 01:35:10;;;;;;;65.20;36.10;;;;;;;10.88;100.00;97921.36;131032;1295;23004;-80
2023/10/21 01:38:11;;;;;;;58.20;35.00;;;;;;;10.86;100.00;97924.40;131027;1295;23366;-82
2023/10/21 01:41:11;;;;;;;59.40;35.20;;;;;;;10.86;100.00;97932.17;130924;1300;25291;-80
2023/10/21 01:44:12;;;;;;;64.70;37.20;;;;;;;10.82;100.00;97946.98;131036;1293;22559;-82
2023/10/21 01:47:12;;;;;;;64.50;35.60;;;;;;;10.78;100.00;97945.91;131057;1301;22952;-83
2023/10/21 01:50:13;;;;;;;63.60;36.70;;;;;;;10.75;100.00;97945.77;131094;1293;22643;-83
2023/10/21 01:53:13;;;;;;;;;;;;;;;10.73;100.00;97948.75;130839;1300;22589;-83
2023/10/21 01:56:14;;;;;;;61.20;34.10;;;;;;;10.71;100.00;97949.86;131030;1300;23381;-80
2023/10/21 01:59:14;;;;;;;57.50;34.50;;;;;;;10.66;100.00;97940.05;130966;1297;22610;-83
2023/10/21 02:02:15;;;;;;;;;;;;;;;10.66;100.00;97946.50;131017;1301;22554;-82
2023/10/21 02:05:16;;;;;;;56.60;33.50;;;;;;;10.66;100.00;97959.88;131069;1301;22612;-81
2023/10/21 02:08:17;;;;;;;55.60;32.30;;;;;;;10.65;100.00;97957.31;131022;1301;23352;-82
2023/10/21 02:11:24;;;;;;;61.20;34.70;;;;;;;10.67;100.00;97960.29;130871;1301;22555;-80
2023/10/21 02:14:24;;;;;;;62.10;34.80;;;;;;;10.65;100.00;97968.17;131033;1302;22661;-81
2023/10/21 02:17:25;;;;;;;65.40;36.30;;;;;;;10.64;100.00;97974.41;130957;1308;22674;-84
2023/10/21 02:20:26;;;;;;;59.80;33.00;;;;;;;10.67;100.00;97976.77;131365;1301;24337;-81
2023/10/21 02:23:27;;;;;;;55.70;32.60;;;;;;;10.67;100.00;97980.80;131105;1301;22591;-79
2023/10/21 02:26:28;;;;;;;61.00;35.10;;;;;;;10.67;100.00;97992.09;131110;1301;22561;-81
2023/10/21 02:29:29;;;;;;;57.60;35.20;;;;;;;10.67;100.00;97994.14;131079;1301;22614;-80
2023/10/21 02:32:31;;;;;;;63.90;35.00;;;;;;;10.66;100.00;97991.17;130937;1301;24006;-84
2023/10/21 02:35:33;;;;;;;63.40;37.00;;;;;;;10.64;100.00;97993.54;130926;1301;22578;-82
2023/10/21 02:38:34;;;;;;;74.50;36.50;;;;;;;10.64;100.00;97997.14;130733;1301;22549;-80
2023/10/21 02:41:35;;;;;;;;;;;;;;;10.61;100.00;98000.27;130944;1305;22568;-82
2023/10/21 02:44:35;;;;;;;;;;;;;;;10.58;100.00;98000.15;130931;1291;23526;-81
2023/10/21 02:47:37;;;;;;;84.10;38.30;;;;;;;10.55;100.00;98001.23;131024;1296;22587;-84
2023/10/21 02:50:38;;;;;;;96.30;42.40;;;;;;;10.53;100.00;98004.35;131239;1295;22601;-83
2023/10/21 02:53:42;;;;;;;107.50;40.60;;;;;;;10.49;100.00;98008.59;130696;1300;22595;-82
2023/10/21 02:56:43;;;;;;;88.30;41.10;;;;;;;10.45;100.00;98010.14;130984;1298;25443;-81
2023/10/21 02:59:43;;;;;;;82.20;40.50;;;;;;;10.42;100.00;98009.48;130901;1301;22573;-81
2023/10/21 03:02:44;;;;;;;79.10;39.00;;;;;;;10.42;100.00;98013.84;130896;1294;24328;-82
2023/10/21 03:05:46;;;;;;;78.80;38.40;;;;;;;10.41;100.00;98013.18;130784;1304;22578;-83
2023/10/21 03:08:48;;;;;;;81.10;39.30;;;;;;;10.40;100.00;98010.27;130792;1298;22754;-80
2023/10/21 03:11:48;;;;;;;77.30;37.60;;;;;;;10.39;100.00;98006.19;130708;1294;22600;-81
2023/10/21 03:14:49;;;;;;;72.20;38.20;;;;;;;10.35;100.00;98010.21;130900;1296;25413;-80
2023/10/21 03:17:50;;;;;;;61.50;35.20;;;;;;;10.33;100.00;98025.15;130867;1301;22574;-79
2023/10/21 03:20:52;;;;;;;60.30;34.90;;;;;;;10.32;100.00;98030.91;131008;1301;22606;-82
2023/10/21 03:23:53;;;;;;;62.90;34.80;;;;;;;10.32;100.00;98039.80;130954;1298;25268;-79
2023/10/21 03:26:53;;;;;;;;;;;;;;;10.32;100.00;98036.95;131387;1301;22600;-82
2023/10/21 03:29:54;;;;;;;53.70;32.10;;;;;;;10.34;100.00;98028.99;130889;1301;22565;-81
2023/10/21 03:32:55;;;;;;;54.20;32.10;;;;;;;10.35;100.00;98019.15;130964;1301;24264;-81
2023/10/21 03:35:57;;;;;;;57.30;33.00;;;;;;;10.34;100.00;98010.64;130963;1301;22790;-83
2023/10/21 03:38:58;;;;;;;56.10;33.60;;;;;;;10.34;100.00;98000.73;130948;1301;23293;-82
2023/10/21 03:41:59;;;;;;;52.60;33.00;;;;;;;10.33;100.00;97992.29;131046;1301;22611;-81
2023/10/21 03:44:59;;;;;;;;;;;;;;;10.35;100.00;98003.56;131073;1301;24258;-82
2023/10/21 03:47:59;;;;;;;57.50;31.60;;;;;;;10.34;100.00;98014.59;131023;1301;22628;-82
2023/10/21 03:51:06;;;;;;;57.40;32.80;;;;;;;10.35;100.00;98023.39;131134;1294;24262;-82
2023/10/21 03:54:07;;;;;;;55.90;31.60;;;;;;;10.36;100.00;98040.67;130928;1298;22585;-80
2023/10/21 03:57:07;;;;;;;52.30;33.60;;;;;;;10.38;100.00;98049.22;130936;1295;23315;-82
2023/10/21 04:00:08;;;;;;;57.20;31.60;;;;;;;10.38;100.00;98054.88;131107;1301;22607;-81
2023/10/21 04:03:12;;;;;;;53.80;35.00;;;;;;;10.38;100.00;98052.81;131642;1301;24400;-81
2023/10/21 04:06:17;;;;;;;48.30;31.00;;;;;;;10.37;100.00;98056.70;131085;1297;23404;-82
2023/10/21 04:09:20;;;;;;;48.90;30.50;;;;;;;10.35;100.00;98052.50;131095;1301;24404;-82
2023/10/21 04:12:21;;;;;;;57.10;31.40;;;;;;;10.36;100.00;98057.15;130970;1297;23147;-80
2023/10/21 04:15:21;;;;;;;44.90;29.50;;;;;;;10.37;100.00;98065.30;131067;1301;23441;-82
2023/10/21 04:18:22;;;;;;;45.10;28.80;;;;;;;10.36;100.00;98064.98;131002;1301;25410;-83
2023/10/21 04:21:25;;;;;;;45.60;29.40;;;;;;;10.35;100.00;98061.20;131060;1301;26479;-82
2023/10/21 04:24:25;;;;;;;46.60;28.40;;;;;;;10.34;100.00;98049.42;130871;1301;22593;-84
2023/10/21 04:27:26;;;;;;;48.20;31.00;;;;;;;10.33;100.00;98052.57;131056;1301;22576;-80
2023/10/21 04:30:26;;;;;;;54.30;32.40;;;;;;;10.30;100.00;98061.28;130947;1294;25385;-81
2023/10/21 04:33:27;;;;;;;51.50;32.50;;;;;;;10.23;100.00;98075.52;131053;1301;25529;-81
2023/10/21 04:36:28;;;;;;;56.50;33.70;;;;;;;10.16;100.00;98081.68;131078;1294;22751;-81
2023/10/21 04:39:29;;;;;;;47.40;31.40;;;;;;;10.12;100.00;98092.05;131100;1301;22580;-82
2023/10/21 04:42:30;;;;;;;50.00;31.80;;;;;;;10.12;100.00;98095.44;131003;1297;22651;-83
2023/10/21 04:45:31;;;;;;;51.10;30.40;;;;;;;10.12;100.00;98088.97;131087;1301;25396;-83
2023/10/21 04:48:31;;;;;;;55.70;31.80;;;;;;;10.09;100.00;98100.38;131122;1301;22598;-80
2023/10/21 04:51:32;;;;;;;48.00;30.70;;;;;;;10.07;100.00;98117.85;131072;1295;22574;-81
2023/10/21 04:54:32;;;;;;;57.30;34.40;;;;;;;10.06;100.00;98132.57;131171;1301;25777;-80
2023/10/21 04:57:33;;;;;;;60.50;34.60;;;;;;;10.05;100.00;98127.48;131109;1301;22655;-84
2023/10/21 05:00:34;;;;;;;55.40;35.10;;;;;;;10.03;100.00;98117.77;131118;1301;26551;-81
2023/10/21 05:03:34;;;;;;;51.80;32.00;;;;;;;10.02;100.00;98128.97;131129;1301;22582;-82
2023/10/21 05:06:35;;;;;;;56.50;34.10;;;;;;;10.01;100.00;98124.89;131058;1301;23398;-81
2023/10/21 05:09:36;;;;;;;47.80;31.20;;;;;;;10.01;100.00;98123.15;130957;1292;24311;-82
2023/10/21 05:12:36;;;;;;;51.30;32.70;;;;;;;10.01;100.00;98127.18;131056;1301;22621;-80
2023/10/21 05:15:38;;;;;;;48.50;30.80;;;;;;;10.00;100.00;98140.52;130997;1296;22600;-80
2023/10/21 05:18:39;;;;;;;49.40;31.00;;;;;;;10.00;100.00;98159.52;130991;1301;22797;-79
2023/10/21 05:21:39;;;;;;;55.10;31.80;;;;;;;9.99;100.00;98161.22;131283;1301;22640;-83
2023/10/21 05:24:40;;;;;;;50.40;31.50;;;;;;;9.98;100.00;98175.20;131322;1295;22567;-82
2023/10/21 05:27:40;;;;;;;48.70;30.50;;;;;;;9.99;100.00;98186.48;131178;1301;22587;-82
2023/10/21 05:30:43;;;;;;;48.10;30.50;;;;;;;9.99;100.00;98200.39;131058;1294;22560;-80
2023/10/21 05:33:44;;;;;;;53.20;31.70;;;;;;;9.99;100.00;98202.63;131139;1294;22567;-81
2023/10/21 05:36:46;;;;;;;56.50;33.20;;;;;;;10.00;100.00;98208.30;131041;1301;25245;-80
2023/10/21 05:39:46;;;;;;;51.40;32.20;;;;;;;10.00;100.00;98199.20;131004;1297;22668;-82
2023/10/21 05:42:47;;;;;;;51.80;31.50;;;;;;;9.98;100.00;98194.95;130928;1301;184060;-82
2023/10/21 05:45:47;;;;;;;53.00;33.30;;;;;;;9.97;100.00;98209.81;131061;1288;22705;-84
2023/10/21 05:48:48;;;;;;;47.00;29.60;;;;;;;9.97;100.00;98205.80;131018;1297;22581;-82
2023/10/21 05:51:48;;;;;;;57.20;30.90;;;;;;;9.97;100.00;98225.50;130972;1301;25198;-81
2023/10/21 05:54:49;;;;;;;55.40;32.60;;;;;;;10.00;100.00;98232.19;131094;1294;27550;-79
2023/10/21 05:57:50;;;;;;;46.90;29.00;;;;;;;10.02;100.00;98251.33;131085;1295;22614;-81
2023/10/21 06:00:50;;;;;;;46.90;28.40;;;;;;;10.03;100.00;98264.67;131061;1293;22556;-80
2023/10/21 06:03:51;;;;;;;53.80;32.90;;;;;;;10.06;100.00;98273.46;131093;1297;22591;-81
2023/10/21 06:06:54;;;;;;;58.90;37.60;;;;;;;10.06;100.00;98281.86;131090;1294;22557;-79
2023/10/21 06:09:55;;;;;;;81.40;50.50;;;;;;;10.05;100.00;98286.43;131018;1301;22563;-81
2023/10/21 06:12:55;;;;;;;;;;;;;;;10.04;100.00;98292.66;131193;1301;22581;-80
2023/10/21 06:15:56;;;;;;;49.90;31.80;;;;;;;10.01;100.00;98292.79;131083;1296;23401;-83
2023/10/21 06:18:56;;;;;;;54.10;34.40;;;;;;;10.03;100.00;98293.03;131342;1301;22673;-82
2023/10/21 06:21:58;;;;;;;53.60;32.20;;;;;;;10.07;100.00;98284.63;131387;1293;22596;-82
2023/10/21 06:24:59;;;;;;;55.00;32.20;;;;;;;10.08;100.00;98283.73;131192;1293;25666;-80
2023/10/21 06:28:00;;;;;;;56.50;30.30;;;;;;;10.13;100.00;98288.28;130984;1301;22593;-80
2023/10/21 06:31:01;;;;;;;53.50;31.60;;;;;;;10.18;100.00;98298.17;131142;1285;22650;-80
2023/10/21 06:34:02;;;;;;;49.50;30.60;;;;;;;10.24;100.00;98302.32;131210;1301;22655;-79
2023/10/21 06:37:03;;;;;;;55.10;32.30;;;;;;;10.28;100.00;98305.67;131402;1298;24241;-83
2023/10/21 06:40:06;;;;;;;;;;;;;;;10.30;100.00;98303.19;131258;1293;24394;-80
2023/10/21 06:43:07;;;;;;;58.10;30.90;;;;;;;10.34;100.00;98313.02;131219;1297;22601;-81
2023/10/21 06:46:08;;;;;;;70.60;34.00;;;;;;;10.38;100.00;98320.70;131142;1299;22557;-81
2023/10/21 06:49:09;;;;;;;77.30;36.60;;;;;;;10.41;100.00;98322.73;130859;1294;22621;-81
2023/10/21 06:52:10;;;;;;;67.20;36.10;;;;;;;10.46;100.00;98331.28;130983;1296;22570;-81
2023/10/21 06:55:11;;;;;;;77.10;35.80;;;;;;;10.52;100.00;98341.33;131157;1294;24505;-82
2023/10/21 06:58:12;;;;;;;67.10;34.60;;;;;;;10.59;100.00;98350.45;130864;1292;22583;-81
2023/10/21 07:01:14;;;;;;;72.70;36.10;;;;;;;10.66;100.00;98356.53;131158;1294;23726;-82
2023/10/21 07:04:18;;;;;;;57.70;34.50;;;;;;;10.72;100.00;98361.01;130802;1297;22600;-81
2023/10/21 07:07:19;;;;;;;58.20;36.30;;;;;;;10.74;100.00;98366.34;130750;1300;22553;-81
2023/10/21 07:10:20;;;;;;;63.00;36.70;;;;;;;10.77;100.00;98373.55;130817;1297;22545;-79
2023/10/21 07:13:21;;;;;;;63.70;35.80;;;;;;;10.81;100.00;98371.58;131317;1294;22581;-80
2023/10/21 07:16:22;;;;;;;55.60;34.70;;;;;;;10.87;100.00;98374.20;131008;1292;22667;-80
2023/10/21 07:19:23;;;;;;;70.40;35.30;;;;;;;10.92;100.00;98372.55;131287;1292;22562;-79
2023/10/21 07:22:23;;;;;;;62.00;36.70;;;;;;;10.97;100.00;98380.73;131251;1301;25326;-80
2023/10/21 07:25:24;;;;;;;94.70;45.50;;;;;;;11.00;100.00;98377.94;131121;1294;25423;-80
2023/10/21 07:28:25;;;;;;;74.10;38.30;;;;;;;11.04;100.00;98385.80;131199;1297;25408;-80
2023/10/21 07:31:28;;;;;;;65.00;35.30;;;;;;;11.08;100.00;98387.70;130984;1297;22578;-81
2023/10/21 07:34:29;;;;;;;60.00;35.20;;;;;;;11.15;100.00;98396.48;131036;1294;22605;-81
2023/10/21 07:37:32;;;;;;;61.20;34.80;;;;;;;11.18;100.00;98401.17;130989;1294;22570;-81
2023/10/21 07:40:33;;;;;;;;;;;;;;;11.24;100.00;98411.02;131078;1297;23230;-81
2023/10/21 07:43:33;;;;;;;52.60;32.50;;;;;;;11.30;100.00;98419.23;130966;1295;22861;-83
2023/10/21 07:46:34;;;;;;;53.10;34.30;;;;;;;11.34;100.00;98425.30;130836;1300;22594;-83
2023/10/21 07:49:35;;;;;;;55.80;33.50;;;;;;;11.42;100.00;98430.08;131113;1285;22598;-81
2023/10/21 07:52:38;;;;;;;51.20;33.30;;;;;;;11.45;100.00;98440.19;131077;1297;22661;-81
2023/10/21 07:55:40;;;;;;;54.30;33.10;;;;;;;11.50;100.00;98448.78;130765;1300;23381;-82
2023/10/21 07:58:42;;;;;;;48.40;31.90;;;;;;;11.61;100.00;98448.69;131040;1301;22607;-82
2023/10/21 08:01:43;;;;;;;49.30;32.70;;;;;;;11.75;100.00;98459.41;130845;1301;23276;-81
2023/10/21 08:04:47;;;;;;;45.00;30.20;;;;;;;11.86;100.00;98476.12;131048;1292;22716;-83
2023/10/21 08:07:48;;;;;;;42.00;29.30;;;;;;;11.94;100.00;98485.27;131104;1292;22575;-79
2023/10/21 08:10:49;;;;;;;44.60;30.30;;;;;;;11.97;100.00;98489.89;130996;1294;22628;-79
2023/10/21 08:13:52;;;;;;;42.30;29.00;;;;;;;11.99;100.00;98495.00;130969;1294;24390;-79
2023/10/21 08:16:53;;;;;;;47.80;31.70;;;;;;;12.11;100.00;98499.33;130743;1293;24329;-79
2023/10/21 08:19:57;;;;;;;40.80;29.20;;;;;;;12.57;100.00;98498.55;130365;1294;22580;-80
2023/10/21 08:22:57;;;;;;;43.50;29.20;;;;;;;13.25;100.00;98498.60;131146;1295;22637;-80
2023/10/21 08:26:00;;;;;;;38.70;28.00;;;;;;;13.70;100.00;98501.49;130931;1294;22681;-80
2023/10/21 08:29:06;;;;;;;37.80;26.50;;;;;;;13.89;100.00;98510.89;131250;1294;22675;-80
2023/10/21 08:32:06;;;;;;;35.40;25.00;;;;;;;14.19;100.00;98520.79;131240;1301;24256;-80
2023/10/21 08:35:07;;;;;;;34.00;25.30;;;;;;;14.60;100.00;98531.60;131042;1293;23389;-79
2023/10/21 08:38:08;;;;;;;33.90;23.90;;;;;;;14.68;100.00;98545.23;130974;1294;24243;-79
2023/10/21 08:41:12;;;;;;;34.30;23.20;;;;;;;14.81;100.00;98541.85;131086;1297;22506;-82
2023/10/21 08:44:13;;;;;;;33.90;23.70;;;;;;;15.01;100.00;98544.98;131184;1298;24589;-79
2023/10/21 08:47:14;;;;;;;;;;;;;;;15.30;100.00;98548.27;130922;1293;25446;-81
2023/10/21 08:50:17;;;;;;;33.50;23.50;;;;;;;15.59;100.00;98553.52;131188;1297;23293;-78
2023/10/21 08:53:18;;;;;;;34.90;23.90;;;;;;;15.85;100.00;98554.09;131224;1294;23389;-81
2023/10/21 08:56:20;;;;;;;36.40;26.30;;;;;;;16.11;100.00;98554.11;131190;1295;23450;-80
2023/10/21 08:59:22;;;;;;;34.10;24.70;;;;;;;16.26;100.00;98556.16;130373;1294;25427;-78
2023/10/21 09:02:22;;;;;;;34.00;24.90;;;;;;;16.45;100.00;98564.72;130337;1294;24234;-79
2023/10/21 09:05:23;;;;;;;;;;;;;;;16.61;100.00;98573.12;130782;1297;22553;-79
2023/10/21 09:08:31;;;;;;;45.00;30.50;;;;;;;16.89;100.00;98578.95;130555;1300;22615;-78
2023/10/21 09:11:32;;;;;;;38.90;26.70;;;;;;;16.92;99.66;98579.80;131125;1294;25387;-79
2023/10/21 09:14:50;;;;;;;;;;;;;;;16.89;98.72;98576.53;131078;1294;22561;-79
2023/10/21 09:17:56;;;;;;;35.10;25.60;;;;;;;17.02;99.87;98572.91;130549;1293;22597;-80
2023/10/21 09:20:57;;;;;;;32.90;24.70;;;;;;;17.09;99.95;98576.98;131250;1297;22647;-80
2023/10/21 09:23:57;;;;;;;;;;;;;;;16.99;98.68;98579.85;131265;1293;22754;-78
2023/10/21 09:27:00;;;;;;;30.60;24.40;;;;;;;17.05;99.93;98581.64;130759;1294;25349;-79
2023/10/21 09:30:04;;;;;;;31.20;24.50;;;;;;;17.33;100.00;98581.38;130720;1297;25538;-79
2023/10/21 09:33:09;;;;;;;32.50;24.90;;;;;;;17.59;99.72;98582.03;131178;1294;22588;-81
2023/10/21 09:36:09;;;;;;;45.60;33.10;;;;;;;17.69;98.36;98585.27;131263;1301;22596;-79
2023/10/21 09:39:10;;;;;;;37.90;26.20;;;;;;;17.65;97.50;98586.63;131004;1301;24248;-80
2023/10/21 09:42:12;;;;;;;29.70;22.80;;;;;;;17.68;97.36;98592.82;130915;1298;22671;-79
2023/10/21 09:45:17;;;;;;;28.40;22.00;;;;;;;17.90;97.78;98591.87;130851;1295;25404;-79
2023/10/21 09:48:18;;;;;;;33.20;24.00;;;;;;;18.11;96.49;98597.41;131543;1294;22611;-80
2023/10/21 09:51:20;;;;;;;48.50;24.00;;;;;;;18.31;95.83;98596.58;131946;1301;22571;-81
2023/10/21 09:54:44;;;;;;;29.00;21.00;;;;;;;18.56;95.64;98590.84;131214;1294;23277;-81
2023/10/21 09:57:48;;;;;;;23.70;20.00;;;;;;;18.95;96.23;98589.99;131023;1293;23358;-80
2023/10/21 10:00:49;;;;;;;25.10;20.10;;;;;;;19.34;95.45;98586.63;130952;1297;22739;-80
2023/10/21 10:03:55;;;;;;;27.90;20.90;;;;;;;19.32;92.17;98589.99;130921;1297;22602;-80
2023/10/21 10:06:58;;;;;;;23.00;19.50;;;;;;;19.28;91.19;98596.48;131055;1301;24255;-80
2023/10/21 10:10:02;;;;;;;28.60;20.20;;;;;;;19.32;89.67;98588.60;131133;1298;22642;-80
2023/10/21 10:13:09;;;;;;;22.90;19.50;;;;;;;19.30;89.04;98593.92;131198;1294;23486;-81
2023/10/21 10:16:19;;;;;;;23.00;19.00;;;;;;;19.32;89.06;98597.80;131265;1296;25320;-80
2023/10/21 10:19:37;;;;;;;23.70;19.00;;;;;;;19.44;89.43;98596.45;131049;1294;23940;-81
2023/10/21 10:22:38;;;;;;;24.30;18.70;;;;;;;19.65;89.33;98603.73;131191;1291;24366;-80
2023/10/21 10:25:44;;;;;;;21.50;17.40;;;;;;;19.85;89.46;98612.00;131170;1294;22594;-80
2023/10/21 10:28:45;;;;;;;32.80;22.50;;;;;;;20.07;88.79;98614.77;130811;1301;22673;-80
2023/10/21 10:32:16;;;;;;;23.70;17.30;;;;;;;20.22;88.13;98617.02;131296;1293;23267;-80
2023/10/21 10:35:40;;;;;;;18.30;15.90;;;;;;;20.41;86.78;98615.59;131139;1295;22664;-81
2023/10/21 10:38:47;;;;;;;22.30;17.40;;;;;;;20.37;84.90;98620.86;131294;1293;22600;-81
2023/10/21 10:41:49;;;;;;;22.30;16.30;;;;;;;20.36;84.60;98627.60;131261;1294;23373;-81
2023/10/21 10:44:55;;;;;;;18.40;16.00;;;;;;;20.36;84.77;98631.15;131055;1293;25303;-80
2023/10/21 10:48:03;;;;;;;19.90;15.40;;;;;;;20.52;85.51;98630.38;131204;1301;24784;-81
2023/10/21 10:51:18;;;;;;;21.00;14.70;;;;;;;20.66;83.70;98633.37;131235;1294;25600;-80
2023/10/21 10:54:19;;;;;;;18.50;13.70;;;;;;;20.68;82.10;98642.20;131183;1293;22568;-80
2023/10/21 10:57:22;;;;;;;19.90;15.50;;;;;;;20.73;82.22;98651.06;131241;1294;22501;-80
2023/10/21 11:00:25;;;;;;;20.50;13.40;;;;;;;20.78;81.20;98651.27;131382;1294;22991;-80
2023/10/21 11:03:38;;;;;;;17.40;15.00;;;;;;;20.87;81.93;98654.77;131287;1301;24388;-81
2023/10/21 11:06:39;;;;;;;21.40;15.30;;;;;;;21.14;80.95;98659.34;131273;1297;22590;-80
2023/10/21 11:09:40;;;;;;;17.60;12.80;;;;;;;21.16;79.57;98661.19;131253;1297;22558;-80
2023/10/21 11:12:41;;;;;;;15.20;12.60;;;;;;;21.12;77.12;98658.66;131404;1301;23172;-80
2023/10/21 11:15:54;;;;;;;15.60;12.20;;;;;;;21.13;78.43;98657.99;131176;1294;25402;-81
2023/10/21 11:18:58;;;;;;;14.80;12.60;;;;;;;21.27;78.66;98669.41;131292;1293;22790;-84
2023/10/21 11:21:58;;;;;;;16.10;11.90;;;;;;;21.44;78.51;98666.24;131053;1296;25448;-84
2023/10/21 11:24:59;;;;;;;16.00;12.10;;;;;;;21.60;77.71;98664.64;131409;1298;26431;-83
2023/10/21 11:28:00;;;;;;;15.10;11.70;;;;;;;21.63;75.91;98670.02;131323;1295;23457;-81
2023/10/21 11:31:02;;;;;;;13.90;11.10;;;;;;;21.71;76.61;98676.00;131197;1294;22596;-83
2023/10/21 11:34:12;;;;;;;16.40;11.70;;;;;;;21.84;76.26;98682.10;131200;1298;25399;-83
2023/10/21 11:37:13;;;;;;;13.00;9.90;;;;;;;21.95;75.33;98686.55;130935;1301;23343;-83
2023/10/21 11:40:15;;;;;;;13.40;10.90;;;;;;;22.04;75.37;98687.05;131102;1301;22594;-85
2023/10/21 11:43:27;;;;;;;16.30;10.10;;;;;;;22.23;75.36;98684.67;130996;1301;22784;-83
2023/10/21 11:46:29;;;;;;;10.90;8.70;;;;;;;22.28;71.92;98678.09;131104;1294;23023;-82
2023/10/21 11:49:39;;;;;;;15.50;9.70;;;;;;;22.15;71.75;98685.94;131067;1298;25355;-83
2023/10/21 11:52:44;;;;;;;18.00;9.90;;;;;;;22.13;72.09;98689.98;130888;1295;24241;-83
2023/10/21 12:00:32;;;;;;;9.60;8.60;;;;;;;22.20;71.06;98692.27;131055;1294;22655;-82
2023/10/21 12:25:53;;;;;;;10.60;8.30;;;;;;;21.84;67.54;98727.20;131019;1301;22687;-83
2023/10/21 12:41:26;;;;;;;10.80;8.40;;;;;;;21.97;68.88;98739.26;130973;1301;22566;-83
2023/10/21 12:44:31;;;;;;;14.70;9.20;;;;;;;21.95;68.10;98741.58;131140;1301;26516;-84
2023/10/21 12:47:33;;;;;;;12.90;8.30;;;;;;;21.85;67.59;98742.80;131104;1301;23917;-83
2023/10/21 12:50:34;;;;;;;11.00;8.50;;;;;;;21.81;67.96;98745.95;131033;1301;22556;-84
2023/10/21 12:53:35;;;;;;;10.00;8.10;;;;;;;21.77;67.84;98754.91;131115;1301;25443;-82
2023/10/21 12:56:38;;;;;;;10.30;7.00;;;;;;;21.76;67.64;98763.48;131483;1301;22657;-84
2023/10/21 12:59:38;;;;;;;11.90;7.20;;;;;;;21.73;68.10;98772.08;131155;1301;22588;-87
2023/10/21 13:02:40;;;;;;;11.10;7.10;;;;;;;21.70;67.41;98778.26;131182;1295;23284;-83
2023/10/21 13:05:46;;;;;;;11.10;7.50;;;;;;;21.68;67.76;98781.70;131117;1300;23369;-84
2023/10/21 13:08:46;;;;;;;10.00;7.30;;;;;;;21.70;67.42;98775.27;131068;1301;22620;-82
2023/10/21 13:11:51;;;;;;;10.80;7.60;;;;;;;21.66;67.82;98775.39;131184;1302;22611;-82
2023/10/21 13:14:54;;;;;;;9.20;7.40;;;;;;;21.62;68.02;98772.20;131072;1301;24479;-83
2023/10/21 13:17:55;;;;;;;7.30;6.00;;;;;;;21.66;68.36;98782.52;130992;1301;24324;-83
2023/10/21 13:20:56;;;;;;;6.50;5.40;;;;;;;21.75;68.47;98776.62;130961;1301;22587;-84
2023/10/21 13:23:57;;;;;;;5.30;4.10;;;;;;;21.78;68.05;98774.98;130989;1301;23546;-85
2023/10/21 13:26:57;;;;;;;4.50;4.10;;;;;;;21.69;67.49;98777.17;131059;1301;22569;-84
2023/10/21 13:30:01;;;;;;;5.90;4.00;;;;;;;21.61;67.27;98776.53;130851;1302;22590;-82
2023/10/21 13:33:03;;;;;;;5.00;4.00;;;;;;;21.59;66.98;98777.66;131011;1296;23384;-82
2023/10/21 13:36:06;;;;;;;7.00;4.00;;;;;;;21.61;66.73;98781.27;130817;1301;25393;-83
2023/10/21 13:39:15;;;;;;;5.30;3.20;;;;;;;21.63;65.88;98788.52;131032;1301;22578;-81
2023/10/21 13:42:16;;;;;;;7.00;3.70;;;;;;;21.57;65.45;98789.76;131090;1298;22587;-81
2023/10/21 13:45:21;;;;;;;4.70;3.40;;;;;;;21.54;65.51;98792.52;131108;1301;22668;-82
2023/10/21 13:48:22;;;;;;;3.80;3.30;;;;;;;21.52;65.34;98792.35;130936;1295;25301;-81
2023/10/21 13:51:23;;;;;;;3.50;3.20;;;;;;;21.48;65.07;98793.85;131098;1301;22575;-80
2023/10/21 13:54:24;;;;;;;3.30;2.90;;;;;;;21.37;63.63;98800.48;130939;1301;23078;-82
2023/10/21 13:57:24;;;;;;;7.20;3.50;;;;;;;21.26;63.75;98804.34;130794;1294;22606;-82
2023/10/21 14:00:31;;;;;;;4.90;3.50;;;;;;;21.13;64.13;98809.08;131034;1301;22628;-82
2023/10/21 14:03:31;;;;;;;4.50;3.30;;;;;;;21.04;64.46;98811.33;130972;1295;22636;-81
2023/10/21 14:06:39;;;;;;;6.30;3.40;;;;;;;20.96;64.24;98807.92;131021;1301;22601;-83
2023/10/21 14:09:40;;;;;;;5.10;3.90;;;;;;;20.87;64.61;98803.20;130874;1298;24638;-82
2023/10/21 14:12:40;;;;;;;5.00;3.70;;;;;;;20.78;64.60;98806.20;130967;1297;25350;-83
2023/10/21 14:15:45;;;;;;;4.90;3.90;;;;;;;20.69;64.72;98812.91;130983;1301;25588;-83
2023/10/21 14:18:46;;;;;;;10.80;5.60;;;;;;;20.68;65.18;98811.23;131081;1301;23595;-83
2023/10/21 14:21:46;;;;;;;9.70;6.20;;;;;;;20.71;65.98;98812.55;130980;1298;25449;-82
2023/10/21 14:24:47;;;;;;;7.70;4.90;;;;;;;20.73;65.83;98815.40;131008;1301;22573;-83
2023/10/21 14:27:48;;;;;;;7.70;5.00;;;;;;;20.66;66.04;98817.86;130805;1293;23006;-81